createdAt,value
2018-12-19T00:00:24.448Z,6.77
2018-12-19T00:02:53.224Z,6.86
2018-12-19T00:05:21.167Z,6.96
2018-12-19T00:07:48.730Z,7.02
2018-12-19T00:10:16.271Z,7.05
2018-12-19T00:12:43.822Z,7.08
2018-12-19T00:15:11.828Z,7.10
2018-12-19T00:17:39.399Z,7.13
2018-12-19T00:20:06.949Z,7.13
2018-12-19T00:22:34.861Z,7.17
2018-12-19T00:25:02.939Z,7.19
2018-12-19T00:27:30.497Z,7.25
2018-12-19T00:29:58.082Z,7.30
2018-12-19T00:32:26.039Z,7.38
2018-12-19T00:34:53.942Z,7.42
2018-12-19T00:37:21.545Z,7.44
2018-12-19T00:39:49.128Z,7.42
2018-12-19T00:42:17.130Z,7.38
2018-12-19T00:44:44.654Z,7.33
2018-12-19T00:47:14.606Z,7.29
2018-12-19T00:49:42.616Z,7.27
2018-12-19T00:52:10.196Z,7.23
2018-12-19T00:54:37.763Z,7.21
2018-12-19T00:57:05.542Z,7.18
2018-12-19T00:59:33.382Z,7.17
2018-12-19T01:02:00.895Z,7.19
2018-12-19T01:04:28.506Z,7.19
2018-12-19T01:06:56.402Z,7.17
2018-12-19T01:09:24.551Z,7.16
2018-12-19T01:11:52.097Z,7.14
2018-12-19T01:14:19.646Z,7.12
2018-12-19T01:16:47.986Z,7.13
2018-12-19T01:19:15.489Z,7.13
2018-12-19T01:21:43.041Z,7.14
2018-12-19T01:24:10.651Z,7.17
2018-12-19T01:26:39.952Z,7.17
2018-12-19T01:29:07.567Z,7.17
2018-12-19T01:31:35.103Z,7.17
2018-12-19T01:34:02.891Z,7.16
2018-12-19T01:36:30.435Z,7.18
2018-12-19T01:38:57.979Z,7.18
2018-12-19T01:41:25.539Z,7.17
2018-12-19T01:43:53.406Z,7.16
2018-12-19T01:46:21.222Z,7.13
2018-12-19T01:48:48.750Z,7.12
2018-12-19T01:51:16.903Z,7.12
2018-12-19T01:53:44.584Z,7.11
2018-12-19T01:56:12.117Z,7.06
2018-12-19T01:58:40.974Z,7.05
2018-12-19T02:01:08.524Z,7.03
2018-12-19T02:03:36.839Z,7.01
2018-12-19T02:06:04.807Z,7.01
2018-12-19T02:08:32.375Z,6.98
2018-12-19T02:10:59.887Z,6.96
2018-12-19T02:13:27.426Z,6.95
2018-12-19T02:15:55.514Z,6.92
2018-12-19T02:18:23.164Z,6.86
2018-12-19T02:20:50.722Z,6.80
2018-12-19T02:23:18.245Z,6.76
2018-12-19T02:25:46.095Z,6.74
2018-12-19T02:28:13.664Z,6.74
2018-12-19T02:30:41.499Z,6.71
2018-12-19T02:33:09.079Z,6.69
2018-12-19T02:35:36.943Z,6.69
2018-12-19T02:38:04.762Z,6.69
2018-12-19T02:40:32.327Z,6.66
2018-12-19T02:42:59.864Z,6.67
2018-12-19T02:45:27.810Z,6.68
2018-12-19T02:47:55.455Z,6.67
2018-12-19T02:50:23.025Z,6.65
2018-12-19T02:52:50.595Z,6.62
2018-12-19T02:55:18.426Z,6.62
2018-12-19T02:57:45.997Z,6.61
2018-12-19T03:00:13.568Z,6.60
2018-12-19T03:02:41.091Z,6.58
2018-12-19T03:05:09.115Z,6.56
2018-12-19T03:07:36.658Z,6.57
2018-12-19T03:10:04.293Z,6.55
2018-12-19T03:12:31.853Z,6.53
2018-12-19T03:14:59.708Z,6.51
2018-12-19T03:17:27.252Z,6.53
2018-12-19T03:19:54.820Z,6.52
2018-12-19T03:22:23.396Z,6.54
2018-12-19T03:24:50.967Z,6.56
2018-12-19T03:27:18.502Z,6.59
2018-12-19T03:29:47.674Z,6.60
2018-12-19T03:32:15.732Z,6.63
2018-12-19T03:34:43.349Z,6.65
2018-12-19T03:37:10.947Z,6.69
2018-12-19T03:39:38.493Z,6.72
2018-12-19T03:42:06.498Z,6.75
2018-12-19T03:44:34.053Z,6.78
2018-12-19T03:47:01.610Z,6.80
2018-12-19T03:49:30.903Z,6.82
2018-12-19T03:51:58.638Z,6.83
2018-12-19T03:54:26.414Z,6.85
2018-12-19T03:56:54.415Z,6.87
2018-12-19T03:59:22.365Z,6.88
2018-12-19T04:01:49.873Z,6.92
2018-12-19T04:04:17.433Z,6.94
2018-12-19T04:06:45.545Z,6.96
2018-12-19T04:09:13.112Z,6.96
2018-12-19T04:11:40.653Z,6.97
2018-12-19T04:14:08.239Z,6.87
2018-12-19T04:16:36.202Z,6.74
2018-12-19T04:19:04.423Z,6.64
2018-12-19T04:21:31.959Z,6.59
2018-12-19T04:23:59.504Z,6.54
2018-12-19T04:26:28.328Z,6.49
2018-12-19T04:28:55.887Z,6.44
2018-12-19T04:31:23.427Z,6.40
2018-12-19T04:33:50.946Z,6.35
2018-12-19T04:36:18.890Z,6.30
2018-12-19T04:38:46.692Z,6.30
2018-12-19T04:41:14.311Z,6.28
2018-12-19T04:43:41.894Z,6.26
2018-12-19T04:46:09.828Z,6.26
2018-12-19T04:48:37.410Z,6.26
2018-12-19T04:51:04.991Z,6.28
2018-12-19T04:53:32.550Z,6.29
2018-12-19T04:56:00.701Z,6.31
2018-12-19T04:58:28.298Z,6.33
2018-12-19T05:00:55.836Z,6.35
2018-12-19T05:03:23.877Z,6.37
2018-12-19T05:05:51.440Z,6.37
2018-12-19T05:08:19.835Z,6.39
2018-12-19T05:10:47.810Z,6.42
2018-12-19T05:13:15.743Z,6.45
2018-12-19T05:15:43.303Z,6.46
2018-12-19T05:18:10.866Z,6.46
2018-12-19T05:20:38.874Z,6.47
2018-12-19T05:23:06.451Z,6.45
2018-12-19T05:25:34.031Z,6.43
2018-12-19T05:28:01.878Z,6.46
2018-12-19T05:30:30.920Z,6.47
2018-12-19T05:32:58.480Z,6.48
2018-12-19T05:35:26.054Z,6.51
2018-12-19T05:37:53.586Z,6.52
2018-12-19T05:40:21.194Z,6.52
2018-12-19T05:42:49.083Z,6.55
2018-12-19T05:45:16.653Z,6.59
2018-12-19T05:47:44.473Z,6.62
2018-12-19T05:50:12.795Z,6.63
2018-12-19T05:52:40.469Z,6.68
2018-12-19T05:55:08.130Z,6.71
2018-12-19T05:57:36.202Z,6.75
2018-12-19T06:00:03.825Z,6.81
2018-12-19T06:02:31.547Z,6.87
2018-12-19T06:05:00.057Z,6.90
2018-12-19T06:07:27.567Z,6.91
2018-12-19T06:09:55.938Z,6.91
2018-12-19T06:12:24.115Z,6.91
2018-12-19T06:14:51.678Z,6.91
2018-12-19T06:17:19.218Z,6.89
2018-12-19T06:19:47.123Z,6.90
2018-12-19T06:22:15.684Z,6.91
2018-12-19T06:24:43.194Z,6.91
2018-12-19T06:27:11.142Z,6.93
2018-12-19T06:29:38.754Z,6.95
2018-12-19T06:32:08.653Z,6.97
2018-12-19T06:34:36.481Z,6.98
2018-12-19T06:37:04.049Z,7.01
2018-12-19T06:39:31.627Z,7.03
2018-12-19T06:41:59.498Z,7.06
2018-12-19T06:44:27.077Z,7.09
2018-12-19T06:46:55.775Z,7.11
2018-12-19T06:49:23.741Z,7.11
2018-12-19T06:51:53.928Z,7.13
2018-12-19T06:54:21.488Z,7.11
2018-12-19T06:56:50.656Z,7.11
2018-12-19T06:59:18.191Z,7.11
2018-12-19T07:01:45.795Z,7.12
2018-12-19T07:04:14.795Z,7.12
2018-12-19T07:06:42.301Z,7.13
2018-12-19T07:09:10.306Z,7.15
2018-12-19T07:11:38.291Z,7.15
2018-12-19T07:14:05.949Z,7.15
2018-12-19T07:16:34.050Z,7.15
2018-12-19T07:19:02.027Z,7.15
2018-12-19T07:21:29.591Z,7.16
2018-12-19T07:23:57.299Z,7.13
2018-12-19T07:26:26.296Z,7.14
2018-12-19T07:28:55.537Z,7.13
2018-12-19T07:31:23.115Z,7.11
2018-12-19T07:33:51.053Z,7.11
2018-12-19T07:36:18.626Z,7.12
2018-12-19T07:38:47.542Z,7.11
2018-12-19T07:41:15.511Z,7.11
2018-12-19T07:43:43.018Z,7.11
2018-12-19T07:46:10.622Z,7.11
2018-12-19T07:48:38.722Z,7.12
2018-12-19T07:51:06.243Z,7.12
2018-12-19T07:53:34.767Z,7.13
2018-12-19T07:56:04.161Z,7.14
2018-12-19T07:58:31.774Z,7.14
2018-12-19T08:01:00.374Z,7.14
2018-12-19T08:03:28.349Z,7.17
2018-12-19T08:05:55.913Z,7.21
2018-12-19T08:08:23.452Z,7.23
2018-12-19T08:10:52.313Z,7.25
2018-12-19T08:13:20.071Z,7.29
2018-12-19T08:15:47.636Z,7.32
2018-12-19T08:18:15.555Z,7.34
2018-12-19T08:20:44.746Z,7.35
2018-12-19T08:23:12.588Z,7.36
2018-12-19T08:25:40.557Z,7.39
2018-12-19T08:28:08.099Z,7.40
2018-12-19T08:30:35.625Z,7.43
2018-12-19T08:33:03.575Z,7.46
2018-12-19T08:35:31.371Z,7.50
2018-12-19T08:37:59.593Z,7.53
2018-12-19T08:40:27.529Z,7.58
2018-12-19T08:42:55.091Z,7.61
2018-12-19T08:45:22.916Z,7.64
2018-12-19T08:47:50.767Z,7.67
2018-12-19T08:50:18.314Z,7.69
2018-12-19T08:52:45.891Z,7.73
2018-12-19T08:55:14.383Z,7.74
2018-12-19T08:57:41.911Z,7.77
2018-12-19T09:00:09.490Z,7.77
2018-12-19T09:02:37.356Z,7.77
2018-12-19T09:05:05.756Z,7.78
2018-12-19T09:07:33.300Z,7.78
2018-12-19T09:10:01.126Z,7.78
2018-12-19T09:12:28.682Z,7.79
2018-12-19T09:14:57.634Z,7.79
2018-12-19T09:17:25.847Z,7.82
2018-12-19T09:19:53.744Z,7.83
2018-12-19T09:22:21.541Z,7.86
2018-12-19T09:24:49.981Z,7.91
2018-12-19T09:27:17.543Z,7.97
2018-12-19T09:29:45.091Z,8.03
2018-12-19T09:32:12.961Z,8.09
2018-12-19T09:34:40.513Z,8.16
2018-12-19T09:37:08.849Z,8.22
2018-12-19T09:39:36.495Z,8.30
2018-12-19T09:42:04.840Z,8.35
2018-12-19T09:44:32.710Z,8.44
2018-12-19T09:47:00.256Z,8.54
2018-12-19T09:49:27.820Z,8.80
2018-12-19T09:51:55.746Z,8.95
2018-12-19T09:54:23.332Z,9.02
2018-12-19T09:56:51.421Z,9.14
2018-12-19T09:59:19.345Z,9.43
2018-12-19T10:01:48.951Z,9.45
2018-12-19T10:04:16.604Z,10.23
2018-12-19T10:06:44.512Z,10.59
2018-12-19T10:09:14.944Z,11.00
2018-12-19T10:11:45.280Z,10.81
2018-12-19T10:14:13.279Z,10.49
2018-12-19T10:16:40.896Z,10.26
2018-12-19T10:19:08.482Z,10.09
2018-12-19T10:21:36.589Z,9.98
2018-12-19T10:24:04.154Z,9.93
2018-12-19T10:26:31.722Z,9.89
2018-12-19T10:29:00.242Z,9.86
2018-12-19T10:31:28.768Z,9.83
2018-12-19T10:33:56.331Z,9.76
2018-12-19T10:36:29.438Z,9.72
2018-12-19T10:38:57.191Z,9.70
2018-12-19T10:41:25.539Z,9.71
2018-12-19T10:43:54.775Z,9.81
2018-12-19T10:46:22.316Z,9.77
2018-12-19T10:48:49.898Z,9.69
2018-12-19T10:51:17.839Z,9.64
2018-12-19T10:53:45.616Z,9.60
2018-12-19T10:56:13.308Z,9.56
2018-12-19T10:58:42.280Z,9.54
2018-12-19T11:01:09.845Z,9.53
2018-12-19T11:03:38.271Z,9.52
2018-12-19T11:06:06.235Z,9.55
2018-12-19T11:08:33.780Z,9.57
2018-12-19T11:11:01.970Z,9.73
2018-12-19T11:13:30.445Z,10.50
2018-12-19T11:15:59.526Z,11.42
2018-12-19T11:18:29.088Z,12.33
2018-12-19T11:20:57.139Z,13.25
2018-12-19T11:23:24.735Z,13.97
2018-12-19T11:25:52.269Z,14.53
2018-12-19T11:28:21.552Z,14.71
2018-12-19T11:30:50.141Z,14.96
2018-12-19T11:33:17.722Z,15.24
2018-12-19T11:35:45.748Z,15.70
2018-12-19T11:38:13.681Z,15.97
2018-12-19T11:40:41.279Z,16.17
2018-12-19T11:43:10.330Z,16.23
2018-12-19T11:45:37.910Z,16.18
2018-12-19T11:48:05.479Z,16.23
2018-12-19T11:50:33.416Z,16.11
2018-12-19T11:53:00.934Z,15.89
2018-12-19T11:55:28.470Z,15.61
2018-12-19T11:57:58.183Z,14.96
2018-12-19T12:00:26.657Z,14.18
2018-12-19T12:02:54.211Z,13.37
2018-12-19T12:05:22.384Z,12.82
2018-12-19T12:07:51.069Z,12.67
2018-12-19T12:10:18.668Z,12.60
2018-12-19T12:12:49.607Z,12.41
2018-12-19T12:15:17.174Z,12.09
2018-12-19T12:17:44.707Z,11.80
2018-12-19T12:20:12.688Z,11.57
2018-12-19T12:22:41.194Z,11.40
2018-12-19T12:25:08.966Z,11.28
2018-12-19T12:27:37.488Z,11.23
2018-12-19T12:30:05.805Z,11.22
2018-12-19T12:32:33.318Z,11.34
2018-12-19T12:35:01.342Z,11.44
2018-12-19T12:37:28.887Z,11.28
2018-12-19T12:39:56.443Z,11.06
2018-12-19T12:42:24.348Z,10.94
2018-12-19T12:44:53.418Z,10.90
2018-12-19T12:47:21.172Z,10.90
2018-12-19T12:49:49.950Z,10.87
2018-12-19T12:52:17.492Z,10.81
2018-12-19T12:54:46.837Z,10.77
2018-12-19T12:57:15.798Z,10.76
2018-12-19T12:59:43.371Z,10.74
2018-12-19T13:02:10.905Z,10.74
2018-12-19T13:04:39.769Z,10.73
2018-12-19T13:07:07.295Z,10.71
2018-12-19T13:09:34.860Z,10.74
2018-12-19T13:12:02.816Z,10.78
2018-12-19T13:14:30.826Z,10.76
2018-12-19T13:16:58.646Z,10.71
2018-12-19T13:19:27.252Z,10.69
2018-12-19T13:21:54.774Z,10.64
2018-12-19T13:24:22.314Z,10.59
2018-12-19T13:26:51.578Z,10.51
2018-12-19T13:29:19.335Z,10.44
2018-12-19T13:31:47.080Z,10.37
2018-12-19T13:34:15.170Z,10.31
2018-12-19T13:36:42.740Z,10.25
2018-12-19T13:39:11.694Z,10.20
2018-12-19T13:41:39.673Z,10.18
2018-12-19T13:44:07.227Z,10.14
2018-12-19T13:46:34.767Z,10.12
2018-12-19T13:49:03.930Z,10.09
2018-12-19T13:51:31.903Z,10.10
2018-12-19T13:53:59.648Z,10.08
2018-12-19T13:56:27.716Z,10.06
2018-12-19T13:58:55.889Z,10.05
2018-12-19T14:01:23.471Z,10.04
2018-12-19T14:03:51.515Z,10.03
2018-12-19T14:08:51.665Z,10.00
2018-12-19T14:11:19.616Z,9.98
2018-12-19T14:13:47.146Z,9.94
2018-12-19T14:16:14.695Z,9.88
2018-12-19T14:18:42.578Z,9.79
2018-12-19T14:21:10.223Z,9.73
2018-12-19T14:23:38.478Z,9.67
2018-12-19T14:26:06.429Z,9.64
2018-12-19T14:28:34.006Z,9.59
2018-12-19T14:31:01.645Z,9.56
2018-12-19T14:33:30.215Z,9.53
2018-12-19T14:35:57.710Z,9.51
2018-12-19T14:38:25.289Z,9.49
2018-12-19T14:40:53.801Z,9.47
2018-12-19T14:43:21.629Z,9.47
2018-12-19T14:45:49.509Z,9.45
2018-12-19T14:48:17.079Z,9.45
2018-12-19T14:50:44.671Z,9.45
2018-12-19T14:53:12.763Z,9.45
2018-12-19T14:55:46.467Z,9.43
2018-12-19T14:58:14.031Z,9.42
2018-12-19T15:00:42.130Z,9.40
2018-12-19T15:03:10.783Z,9.39
2018-12-19T15:05:38.584Z,9.36
2018-12-19T15:08:06.501Z,9.35
2018-12-19T15:10:34.290Z,9.32
2018-12-19T15:13:01.830Z,9.30
2018-12-19T15:15:30.643Z,9.25
2018-12-19T15:17:58.274Z,9.17
2018-12-19T15:20:26.450Z,9.07
2018-12-19T15:22:54.515Z,8.96
2018-12-19T15:25:22.107Z,8.83
2018-12-19T15:27:49.650Z,8.73
2018-12-19T15:30:17.721Z,8.63
2018-12-19T15:32:45.335Z,8.54
2018-12-19T15:35:14.906Z,8.51
2018-12-19T15:37:43.466Z,8.48
2018-12-19T15:40:11.883Z,8.43
2018-12-19T15:42:39.414Z,8.39
2018-12-19T15:45:10.174Z,8.33
2018-12-19T15:47:37.835Z,8.25
2018-12-19T15:50:05.425Z,8.17
2018-12-19T15:52:33.466Z,8.14
2018-12-19T15:55:01.595Z,8.13
2018-12-19T15:57:29.377Z,8.12
2018-12-19T15:59:57.393Z,8.15
2018-12-19T16:02:26.224Z,8.14
2018-12-19T16:04:53.897Z,8.12
2018-12-19T16:07:26.402Z,8.11
2018-12-19T16:09:53.977Z,8.11
2018-12-19T16:12:21.507Z,8.14
2018-12-19T16:14:50.507Z,8.15
2018-12-19T16:17:18.096Z,8.15
2018-12-19T16:19:45.664Z,8.15
2018-12-19T16:22:13.756Z,8.16
2018-12-19T16:24:41.292Z,8.17
2018-12-19T16:27:10.083Z,8.18
2018-12-19T16:29:39.038Z,8.18
2018-12-19T16:32:06.615Z,8.22
2018-12-19T16:34:34.187Z,8.26
2018-12-19T16:37:04.351Z,8.25
2018-12-19T16:39:34.902Z,8.24
2018-12-19T16:42:04.290Z,8.23
2018-12-19T16:44:35.557Z,8.25
2018-12-19T16:47:03.177Z,8.30
2018-12-19T16:49:31.462Z,8.35
2018-12-19T16:51:59.369Z,8.40
2018-12-19T16:54:29.218Z,8.44
2018-12-19T16:56:57.367Z,8.50
2018-12-19T16:59:25.480Z,8.50
2018-12-19T17:01:54.026Z,8.49
2018-12-19T17:04:21.605Z,8.45
2018-12-19T17:06:49.445Z,8.42
2018-12-19T17:09:17.675Z,8.40
2018-12-19T17:11:46.393Z,8.37
2018-12-19T17:14:15.115Z,8.33
2018-12-19T17:16:42.752Z,8.31
2018-12-19T17:19:11.490Z,8.29
2018-12-19T17:21:40.067Z,8.27
2018-12-19T17:24:07.594Z,8.25
2018-12-19T17:26:35.747Z,8.24
2018-12-19T17:29:03.961Z,8.25
2018-12-19T17:31:31.658Z,8.28
2018-12-19T17:33:59.304Z,8.31
2018-12-19T17:36:27.619Z,8.33
2018-12-19T17:38:55.207Z,8.33
2018-12-19T17:41:23.509Z,8.29
2018-12-19T17:43:51.542Z,8.25
2018-12-19T17:46:19.170Z,8.22
2018-12-19T17:48:47.327Z,8.25
2018-12-19T17:51:15.551Z,8.27
2018-12-19T17:53:43.111Z,8.29
2018-12-19T17:56:15.300Z,8.27
2018-12-19T17:58:43.233Z,8.29
2018-12-19T18:01:10.883Z,8.27
2018-12-19T18:03:38.470Z,8.27
2018-12-19T18:06:07.325Z,8.26
2018-12-19T18:08:34.890Z,8.25
2018-12-19T18:11:03.205Z,8.24
2018-12-19T18:13:31.972Z,8.24
2018-12-19T18:15:59.567Z,8.25
2018-12-19T18:18:27.147Z,8.26
2018-12-19T18:20:55.195Z,8.27
2018-12-19T18:23:22.750Z,8.28
2018-12-19T18:25:50.300Z,8.32
2018-12-19T18:28:18.298Z,8.37
2018-12-19T18:30:46.685Z,8.40
2018-12-19T18:33:14.223Z,8.46
2018-12-19T18:35:42.359Z,8.46
2018-12-19T18:38:10.751Z,8.48
2018-12-19T18:40:38.279Z,8.50
2018-12-19T18:43:12.742Z,8.51
2018-12-19T18:45:38.045Z,8.55
2018-12-19T18:48:06.352Z,8.56
2018-12-19T18:50:35.252Z,8.58
2018-12-19T18:53:02.890Z,8.59
2018-12-19T18:55:31.439Z,8.60
2018-12-19T18:58:01.152Z,8.61
2018-12-19T19:00:35.003Z,8.63
2018-12-19T19:03:02.718Z,8.63
2018-12-19T19:05:30.604Z,8.64
2018-12-19T19:08:00.749Z,8.63
2018-12-19T19:10:30.740Z,8.64
2018-12-19T19:12:59.338Z,8.65
2018-12-19T19:15:26.932Z,8.67
2018-12-19T19:17:54.493Z,8.69
2018-12-19T19:20:22.571Z,8.67
2018-12-19T19:22:50.268Z,8.65
2018-12-19T19:25:17.832Z,8.59
2018-12-19T19:27:47.243Z,8.51
2018-12-19T19:30:15.425Z,8.43
2018-12-19T19:32:44.615Z,8.37
2018-12-19T19:35:12.585Z,8.30
2018-12-19T19:37:40.152Z,8.24
2018-12-19T19:40:07.709Z,8.20
2018-12-19T19:42:35.591Z,8.16
2018-12-19T19:45:03.280Z,8.14
2018-12-19T19:47:31.447Z,8.11
2018-12-19T19:49:59.387Z,8.07
2018-12-19T19:52:27.515Z,8.04
2018-12-19T19:54:55.057Z,8.02
2018-12-19T19:57:24.614Z,8.01
2018-12-19T19:59:52.442Z,8.01
2018-12-19T20:02:21.383Z,8.01
2018-12-19T20:04:50.517Z,8.02
2018-12-19T20:07:18.637Z,8.04
2018-12-19T20:09:46.189Z,8.06
2018-12-19T20:12:15.965Z,8.07
2018-12-19T20:14:43.561Z,8.08
2018-12-19T20:17:13.196Z,8.09
2018-12-19T20:19:41.367Z,8.10
2018-12-19T20:22:09.643Z,8.10
2018-12-19T20:24:40.730Z,8.12
2018-12-19T20:27:09.280Z,8.13
2018-12-19T20:29:37.439Z,8.17
2018-12-19T20:32:06.669Z,8.18
2018-12-19T20:34:34.714Z,8.20
2018-12-19T20:37:02.341Z,8.22
2018-12-19T20:39:31.988Z,8.24
2018-12-19T20:42:00.560Z,8.26
2018-12-19T20:44:28.115Z,8.30
2018-12-19T20:46:56.083Z,8.30
2018-12-19T20:49:23.591Z,8.31
2018-12-19T20:51:51.747Z,8.31
2018-12-19T20:54:21.280Z,8.31
2018-12-19T20:56:48.808Z,8.31
2018-12-19T20:59:16.412Z,8.31
2018-12-19T21:01:44.271Z,8.33
2018-12-19T21:04:11.901Z,8.36
2018-12-19T21:06:39.766Z,8.39
2018-12-19T21:09:08.313Z,8.42
2018-12-19T21:11:35.930Z,8.43
2018-12-19T21:14:03.446Z,8.45
2018-12-19T21:16:36.571Z,8.46
2018-12-19T21:19:05.659Z,8.46
2018-12-19T21:21:33.203Z,8.45
2018-12-19T21:24:02.247Z,8.44
2018-12-19T21:26:29.811Z,8.42
2018-12-19T21:28:57.366Z,8.36
2018-12-19T21:31:26.171Z,8.30
2018-12-19T21:33:53.992Z,8.25
2018-12-19T21:36:22.820Z,8.21
2018-12-19T21:38:51.103Z,8.21
2018-12-19T21:41:19.901Z,8.24
2018-12-19T21:43:53.440Z,8.27
2018-12-19T21:46:17.597Z,8.30
2018-12-19T21:48:45.179Z,8.32
2018-12-19T21:51:12.767Z,8.37
2018-12-19T21:53:41.737Z,8.37
2018-12-19T21:56:12.336Z,8.40
2018-12-19T21:58:40.552Z,8.42
2018-12-19T22:01:11.110Z,8.45
2018-12-19T22:03:38.667Z,8.47
2018-12-19T22:06:06.189Z,8.50
2018-12-19T22:08:34.192Z,8.50
2018-12-19T22:11:02.463Z,8.53
2018-12-19T22:13:29.998Z,8.54
2018-12-19T22:15:58.883Z,8.55
2018-12-19T22:18:31.501Z,8.57
2018-12-19T22:20:59.042Z,8.58
2018-12-19T22:23:26.619Z,8.60
2018-12-19T22:25:54.959Z,8.59
2018-12-19T22:28:22.981Z,8.60
2018-12-19T22:30:50.514Z,8.60
2018-12-19T22:33:18.124Z,8.58
2018-12-19T22:35:45.793Z,8.58
2018-12-19T22:38:14.963Z,8.58
2018-12-19T22:40:43.378Z,8.57
2018-12-19T22:43:10.964Z,8.55
2018-12-19T22:45:38.508Z,8.55
2018-12-19T22:48:06.311Z,8.52
2018-12-19T22:50:37.449Z,8.49
2018-12-19T22:53:05.807Z,8.49
2018-12-19T22:55:34.704Z,8.49
2018-12-19T22:58:02.556Z,8.48
2018-12-19T23:00:34.291Z,8.47
2018-12-19T23:03:06.955Z,8.47
2018-12-19T23:05:39.609Z,8.47
2018-12-19T23:08:07.257Z,8.47
2018-12-19T23:10:34.889Z,8.48
2018-12-19T23:13:02.588Z,8.48
2018-12-19T23:15:30.484Z,8.47
2018-12-19T23:18:03.332Z,8.46
2018-12-19T23:20:31.069Z,8.46
2018-12-19T23:22:58.970Z,8.46
2018-12-19T23:25:27.538Z,8.45
2018-12-19T23:27:55.095Z,8.44
2018-12-19T23:30:22.799Z,8.47
2018-12-19T23:32:50.471Z,8.47
2018-12-19T23:35:18.535Z,8.47
2018-12-19T23:37:46.632Z,8.47
2018-12-19T23:40:14.142Z,8.49
2018-12-19T23:42:42.801Z,8.47
2018-12-19T23:45:10.407Z,8.48
2018-12-19T23:47:37.934Z,8.47
2018-12-19T23:50:05.571Z,8.47
2018-12-19T23:52:33.227Z,8.45
2018-12-19T23:55:00.774Z,8.45
2018-12-19T23:57:28.390Z,8.44
2018-12-19T23:59:56.068Z,8.43
